createdAt,value
2023-04-16T00:00:48.326Z,100.00
2023-04-16T00:03:34.727Z,100.00
2023-04-16T00:06:03.336Z,100.00
2023-04-16T00:08:31.369Z,100.00
2023-04-16T00:10:59.091Z,100.00
2023-04-16T00:13:27.924Z,100.00
2023-04-16T00:15:55.897Z,100.00
2023-04-16T00:18:23.900Z,100.00
2023-04-16T00:20:51.832Z,100.00
2023-04-16T00:23:19.870Z,100.00
2023-04-16T00:25:47.836Z,100.00
2023-04-16T00:28:15.769Z,100.00
2023-04-16T00:30:43.615Z,100.00
2023-04-16T00:33:11.994Z,100.00
2023-04-16T00:35:39.874Z,100.00
2023-04-16T00:38:08.209Z,100.00
2023-04-16T00:40:35.830Z,100.00
2023-04-16T00:43:04.324Z,100.00
2023-04-16T00:45:32.518Z,100.00
2023-04-16T00:48:01.620Z,100.00
2023-04-16T00:50:29.643Z,100.00
2023-04-16T00:52:58.211Z,100.00
2023-04-16T00:55:26.858Z,100.00
2023-04-16T00:57:54.773Z,100.00
2023-04-16T01:00:22.615Z,100.00
2023-04-16T01:02:50.898Z,100.00
2023-04-16T01:05:20.521Z,100.00
2023-04-16T01:07:48.584Z,100.00
2023-04-16T01:10:16.267Z,100.00
2023-04-16T01:12:44.217Z,100.00
2023-04-16T01:15:11.988Z,100.00
2023-04-16T01:17:40.504Z,100.00
2023-04-16T01:20:08.443Z,100.00
2023-04-16T01:22:36.386Z,100.00
2023-04-16T01:25:04.281Z,100.00
2023-04-16T01:27:32.615Z,100.00
2023-04-16T01:30:00.216Z,100.00
2023-04-16T01:32:39.599Z,100.00
2023-04-16T01:35:07.500Z,100.00
2023-04-16T01:37:35.524Z,100.00
2023-04-16T01:40:03.287Z,100.00
2023-04-16T01:42:31.249Z,100.00
2023-04-16T01:44:58.984Z,100.00
2023-04-16T01:47:27.067Z,100.00
2023-04-16T01:49:54.857Z,100.00
2023-04-16T01:52:22.862Z,100.00
2023-04-16T01:54:50.575Z,100.00
2023-04-16T01:57:18.520Z,100.00
2023-04-16T01:59:46.210Z,100.00
2023-04-16T02:02:16.359Z,100.00
2023-04-16T02:04:46.184Z,100.00
2023-04-16T02:07:14.226Z,100.00
2023-04-16T02:09:42.185Z,100.00
2023-04-16T02:12:11.848Z,100.00
2023-04-16T02:14:39.453Z,100.00
2023-04-16T02:17:07.495Z,100.00
2023-04-16T02:19:39.548Z,100.00
2023-04-16T02:22:08.838Z,100.00
2023-04-16T02:24:36.532Z,100.00
2023-04-16T02:27:08.385Z,100.00
2023-04-16T02:29:36.492Z,100.00
2023-04-16T02:32:12.078Z,100.00
2023-04-16T02:34:43.717Z,100.00
2023-04-16T02:37:12.607Z,100.00
2023-04-16T02:39:40.824Z,100.00
2023-04-16T02:42:08.747Z,100.00
2023-04-16T02:44:37.198Z,100.00
2023-04-16T02:47:05.244Z,100.00
2023-04-16T02:49:33.046Z,100.00
2023-04-16T02:52:00.934Z,100.00
2023-04-16T02:54:28.551Z,100.00
2023-04-16T02:56:56.917Z,100.00
2023-04-16T02:59:24.512Z,100.00
2023-04-16T03:01:52.831Z,100.00
2023-04-16T03:04:20.643Z,100.00
2023-04-16T03:06:48.548Z,100.00
2023-04-16T03:09:16.267Z,100.00
2023-04-16T03:11:44.344Z,100.00
2023-04-16T03:14:12.093Z,100.00
2023-04-16T03:16:39.977Z,100.00
2023-04-16T03:19:07.933Z,100.00
2023-04-16T03:21:37.543Z,100.00
2023-04-16T03:24:05.249Z,100.00
2023-04-16T03:26:33.143Z,100.00
2023-04-16T03:29:02.194Z,100.00
2023-04-16T03:31:32.540Z,100.00
2023-04-16T03:34:00.914Z,100.00
2023-04-16T03:36:28.850Z,100.00
2023-04-16T03:38:57.436Z,100.00
2023-04-16T03:41:25.488Z,100.00
2023-04-16T03:43:53.282Z,100.00
2023-04-16T03:46:21.251Z,100.00
2023-04-16T03:48:49.511Z,100.00
2023-04-16T03:51:17.498Z,100.00
2023-04-16T03:53:45.274Z,100.00
2023-04-16T03:56:14.672Z,100.00
2023-04-16T03:58:42.668Z,100.00
2023-04-16T04:01:10.765Z,100.00
2023-04-16T04:03:39.597Z,100.00
2023-04-16T04:06:09.409Z,100.00
2023-04-16T04:08:37.457Z,100.00
2023-04-16T04:11:06.654Z,100.00
2023-04-16T04:13:35.896Z,100.00
2023-04-16T04:16:05.839Z,100.00
2023-04-16T04:18:33.573Z,100.00
2023-04-16T04:21:06.666Z,100.00
2023-04-16T04:23:35.565Z,100.00
2023-04-16T04:26:05.668Z,100.00
2023-04-16T04:28:34.273Z,100.00
2023-04-16T04:31:02.370Z,100.00
2023-04-16T04:33:31.794Z,100.00
2023-04-16T04:35:59.730Z,100.00
2023-04-16T04:38:28.270Z,100.00
2023-04-16T04:40:56.328Z,100.00
2023-04-16T04:43:25.394Z,100.00
2023-04-16T04:45:53.422Z,100.00
2023-04-16T04:48:26.248Z,100.00
2023-04-16T04:50:54.598Z,100.00
2023-04-16T04:53:22.360Z,99.81
2023-04-16T04:55:53.161Z,99.25
2023-04-16T04:58:23.340Z,99.47
2023-04-16T05:00:51.305Z,99.17
2023-04-16T05:03:22.285Z,98.56
2023-04-16T05:05:50.310Z,98.05
2023-04-16T05:08:17.970Z,97.16
2023-04-16T05:10:46.048Z,96.83
2023-04-16T05:13:13.723Z,96.11
2023-04-16T05:15:41.627Z,96.09
2023-04-16T05:18:09.839Z,95.38
2023-04-16T05:20:37.995Z,95.31
2023-04-16T05:23:05.746Z,94.63
2023-04-16T05:25:33.864Z,94.07
2023-04-16T05:28:01.803Z,94.37
2023-04-16T05:30:29.861Z,93.81
2023-04-16T05:32:57.595Z,93.55
2023-04-16T05:35:25.767Z,93.59
2023-04-16T05:37:53.395Z,93.46
2023-04-16T05:40:21.640Z,93.44
2023-04-16T05:42:49.420Z,94.08
2023-04-16T05:45:17.350Z,93.18
2023-04-16T05:47:45.311Z,92.63
2023-04-16T05:50:13.343Z,92.48
2023-04-16T05:52:40.998Z,92.96
2023-04-16T05:55:09.371Z,92.67
2023-04-16T05:57:37.030Z,92.78
2023-04-16T06:00:05.402Z,92.91
2023-04-16T06:02:40.307Z,92.68
2023-04-16T06:05:08.678Z,92.71
2023-04-16T06:07:36.397Z,92.76
2023-04-16T06:10:04.569Z,91.69
2023-04-16T06:12:32.234Z,90.92
2023-04-16T06:15:01.370Z,90.52
2023-04-16T06:17:29.119Z,90.39
2023-04-16T06:19:57.037Z,89.57
2023-04-16T06:22:25.342Z,88.25
2023-04-16T06:24:53.958Z,86.52
2023-04-16T06:27:21.555Z,86.40
2023-04-16T06:29:49.722Z,84.61
2023-04-16T06:32:17.954Z,83.46
2023-04-16T06:34:45.888Z,82.03
2023-04-16T06:37:13.549Z,80.46
2023-04-16T06:39:41.507Z,79.97
2023-04-16T06:42:09.222Z,79.87
2023-04-16T06:44:37.191Z,78.09
2023-04-16T06:47:04.926Z,77.98
2023-04-16T06:49:33.011Z,78.06
2023-04-16T06:52:00.883Z,77.86
2023-04-16T06:54:28.801Z,78.16
2023-04-16T06:56:56.488Z,78.63
2023-04-16T06:59:24.586Z,77.63
2023-04-16T07:01:53.054Z,77.45
2023-04-16T07:04:21.866Z,76.51
2023-04-16T07:06:49.650Z,77.07
2023-04-16T07:09:20.575Z,77.17
2023-04-16T07:11:48.370Z,77.19
2023-04-16T07:14:16.434Z,76.91
2023-04-16T07:16:44.132Z,77.57
2023-04-16T07:19:12.271Z,76.86
2023-04-16T07:21:42.054Z,76.98
2023-04-16T07:24:14.021Z,76.79
2023-04-16T07:26:41.737Z,77.09
2023-04-16T07:29:09.927Z,76.26
2023-04-16T07:31:38.556Z,75.64
2023-04-16T07:34:06.639Z,75.37
2023-04-16T07:36:34.360Z,74.15
2023-04-16T07:39:02.414Z,74.46
2023-04-16T07:41:30.139Z,73.40
2023-04-16T07:43:58.415Z,71.83
2023-04-16T07:46:30.458Z,71.24
2023-04-16T07:49:01.550Z,70.71
2023-04-16T07:51:29.215Z,70.50
2023-04-16T07:53:57.086Z,70.67
2023-04-16T07:56:24.817Z,70.62
2023-04-16T07:58:52.897Z,69.78
2023-04-16T08:01:21.087Z,69.82
2023-04-16T08:03:49.282Z,70.16
2023-04-16T08:06:17.038Z,70.64
2023-04-16T08:08:44.982Z,70.73
2023-04-16T08:11:12.632Z,69.83
2023-04-16T08:13:40.590Z,70.98
2023-04-16T08:16:08.381Z,70.78
2023-04-16T08:18:36.962Z,71.14
2023-04-16T08:21:04.733Z,70.70
2023-04-16T08:23:33.005Z,70.35
2023-04-16T08:26:02.265Z,69.59
2023-04-16T08:28:30.370Z,69.86
2023-04-16T08:30:58.115Z,70.36
2023-04-16T08:33:26.513Z,69.72
2023-04-16T08:35:54.121Z,69.13
2023-04-16T08:38:22.183Z,68.77
2023-04-16T08:40:49.885Z,67.90
2023-04-16T08:43:19.340Z,67.49
2023-04-16T08:45:48.984Z,67.05
2023-04-16T08:48:20.720Z,66.83
2023-04-16T08:50:52.426Z,66.58
2023-04-16T08:53:49.409Z,66.19
2023-04-16T08:56:23.019Z,65.61
2023-04-16T08:58:54.865Z,65.06
2023-04-16T09:01:24.972Z,65.14
2023-04-16T09:03:54.038Z,64.44
2023-04-16T09:06:22.307Z,63.79
2023-04-16T09:08:50.957Z,62.07
2023-04-16T09:11:19.443Z,62.09
2023-04-16T09:13:48.116Z,61.53
2023-04-16T09:16:16.189Z,60.85
2023-04-16T09:18:44.179Z,60.60
2023-04-16T09:21:12.673Z,60.31
2023-04-16T09:23:41.962Z,59.92
2023-04-16T09:26:09.602Z,58.96
2023-04-16T09:28:41.080Z,58.78
2023-04-16T09:31:19.368Z,59.73
2023-04-16T09:34:08.652Z,59.74
2023-04-16T09:36:37.165Z,60.29
2023-04-16T09:39:05.179Z,60.12
2023-04-16T09:41:39.559Z,58.31
2023-04-16T09:44:07.489Z,58.59
2023-04-16T09:46:36.895Z,58.35
2023-04-16T09:49:16.178Z,57.89
2023-04-16T09:51:45.330Z,57.40
2023-04-16T09:54:13.746Z,58.11
2023-04-16T09:56:46.405Z,57.89
2023-04-16T09:59:21.845Z,58.36
2023-04-16T10:01:50.884Z,58.15
2023-04-16T10:04:19.085Z,58.14
2023-04-16T10:07:04.700Z,58.36
2023-04-16T10:09:37.652Z,58.50
2023-04-16T10:12:06.842Z,57.64
2023-04-16T10:14:35.792Z,57.55
2023-04-16T10:17:06.223Z,58.69
2023-04-16T10:19:35.515Z,58.72
2023-04-16T10:22:03.834Z,58.57
2023-04-16T10:24:34.013Z,58.82
2023-04-16T10:27:02.608Z,58.55
2023-04-16T10:29:31.702Z,58.43
2023-04-16T10:32:01.175Z,58.69
2023-04-16T10:34:30.001Z,58.53
2023-04-16T10:36:57.653Z,58.84
2023-04-16T10:39:28.476Z,58.33
2023-04-16T10:42:09.555Z,58.38
2023-04-16T10:44:37.665Z,57.58
2023-04-16T10:47:13.027Z,57.11
2023-04-16T10:49:42.472Z,56.62
2023-04-16T10:52:12.248Z,55.54
2023-04-16T10:54:41.304Z,55.04
2023-04-16T10:57:15.102Z,54.48
2023-04-16T10:59:44.212Z,53.51
2023-04-16T11:02:17.790Z,53.49
2023-04-16T11:04:48.197Z,52.60
2023-04-16T11:07:19.608Z,52.49
2023-04-16T11:10:02.089Z,51.92
2023-04-16T11:12:30.307Z,51.17
2023-04-16T11:15:13.001Z,50.61
2023-04-16T11:17:47.636Z,50.18
2023-04-16T11:20:21.089Z,49.25
2023-04-16T11:22:50.693Z,49.48
2023-04-16T11:25:30.234Z,50.40
2023-04-16T11:28:01.404Z,50.95
2023-04-16T11:30:34.600Z,51.54
2023-04-16T11:33:06.021Z,51.39
2023-04-16T11:35:34.092Z,51.51
2023-04-16T11:38:02.320Z,52.19
2023-04-16T11:40:34.303Z,52.09
2023-04-16T11:43:04.129Z,52.01
2023-04-16T11:45:32.101Z,51.36
2023-04-16T11:47:59.908Z,51.30
2023-04-16T11:50:28.877Z,51.44
2023-04-16T11:53:03.635Z,52.05
2023-04-16T11:55:31.762Z,51.12
2023-04-16T11:58:13.090Z,50.78
2023-04-16T12:00:41.666Z,50.30
2023-04-16T12:03:10.041Z,49.60
2023-04-16T12:05:39.822Z,49.36
2023-04-16T12:08:10.026Z,49.88
2023-04-16T12:10:54.912Z,49.68
2023-04-16T12:13:23.386Z,49.57
2023-04-16T12:15:53.926Z,49.99
2023-04-16T12:18:24.032Z,50.24
2023-04-16T12:20:52.121Z,50.20
2023-04-16T12:23:28.911Z,50.17
2023-04-16T12:26:02.540Z,50.29
2023-04-16T12:28:35.962Z,51.31
2023-04-16T12:31:04.497Z,51.87
2023-04-16T12:33:32.362Z,51.89
2023-04-16T12:36:01.625Z,52.20
2023-04-16T12:38:29.930Z,52.30
2023-04-16T12:40:58.472Z,52.66
2023-04-16T12:43:26.564Z,52.42
2023-04-16T12:45:54.720Z,51.92
2023-04-16T12:48:22.402Z,52.00
2023-04-16T12:50:53.245Z,51.74
2023-04-16T12:53:20.992Z,51.63
2023-04-16T12:55:49.156Z,52.18
2023-04-16T12:58:16.801Z,52.40
2023-04-16T13:00:44.895Z,52.12
2023-04-16T13:03:12.732Z,52.22
2023-04-16T13:05:41.489Z,51.17
2023-04-16T13:08:09.233Z,51.20
2023-04-16T13:10:37.373Z,51.13
2023-04-16T13:13:05.554Z,50.75
2023-04-16T13:15:33.537Z,49.87
2023-04-16T13:18:01.862Z,48.54
2023-04-16T13:20:29.964Z,48.15
2023-04-16T13:22:57.585Z,47.30
2023-04-16T13:25:25.784Z,47.36
2023-04-16T13:27:53.496Z,47.45
2023-04-16T13:30:21.444Z,47.92
2023-04-16T13:32:49.134Z,47.65
2023-04-16T13:35:17.198Z,47.25
2023-04-16T13:37:44.979Z,47.15
2023-04-16T13:40:12.984Z,46.63
2023-04-16T13:42:40.719Z,46.58
2023-04-16T13:45:11.965Z,46.32
2023-04-16T13:47:44.625Z,46.54
2023-04-16T13:50:12.690Z,46.97
2023-04-16T13:52:40.361Z,47.13
2023-04-16T13:55:09.690Z,46.71
2023-04-16T13:57:37.483Z,46.32
2023-04-16T14:00:06.042Z,46.72
2023-04-16T14:02:33.803Z,46.99
2023-04-16T14:05:01.952Z,47.28
2023-04-16T14:07:29.727Z,47.85
2023-04-16T14:09:57.655Z,48.50
2023-04-16T14:12:25.451Z,49.19
2023-04-16T14:14:53.588Z,49.83
2023-04-16T14:17:21.323Z,50.24
2023-04-16T14:19:49.588Z,51.45
2023-04-16T14:22:18.018Z,51.95
2023-04-16T14:24:46.125Z,52.09
2023-04-16T14:27:13.765Z,51.31
2023-04-16T14:29:41.727Z,51.42
2023-04-16T14:32:09.463Z,51.76
2023-04-16T14:34:37.344Z,51.90
2023-04-16T14:37:05.705Z,51.65
2023-04-16T14:39:34.751Z,51.40
2023-04-16T14:42:03.217Z,51.33
2023-04-16T14:44:31.301Z,51.21
2023-04-16T14:46:59.276Z,51.10
2023-04-16T14:49:27.186Z,50.86
2023-04-16T14:51:54.938Z,50.73
2023-04-16T14:54:23.181Z,50.82
2023-04-16T14:56:53.518Z,50.84
2023-04-16T14:59:21.720Z,51.37
2023-04-16T15:01:49.736Z,51.48
2023-04-16T15:04:18.225Z,51.27
2023-04-16T15:06:46.581Z,51.84
2023-04-16T15:09:14.891Z,51.96
2023-04-16T15:11:42.533Z,52.03
2023-04-16T15:14:10.927Z,51.69
2023-04-16T15:16:38.871Z,52.04
2023-04-16T15:19:07.060Z,51.40
2023-04-16T15:21:34.720Z,51.51
2023-04-16T15:24:03.035Z,52.56
2023-04-16T15:26:31.348Z,53.22
2023-04-16T15:28:59.311Z,53.17
2023-04-16T15:31:27.191Z,52.83
2023-04-16T15:33:56.229Z,52.91
2023-04-16T15:36:24.024Z,53.58
2023-04-16T15:38:51.970Z,53.14
2023-04-16T15:41:19.751Z,53.37
2023-04-16T15:43:47.781Z,53.90
2023-04-16T15:46:15.651Z,54.97
2023-04-16T15:48:43.595Z,54.87
2023-04-16T15:51:11.592Z,55.53
2023-04-16T15:53:39.663Z,56.69
2023-04-16T15:56:07.402Z,56.83
2023-04-16T15:58:35.377Z,57.46
2023-04-16T16:01:03.098Z,57.77
2023-04-16T16:03:33.103Z,58.01
2023-04-16T16:06:03.960Z,58.50
2023-04-16T16:08:35.394Z,59.12
2023-04-16T16:11:03.348Z,59.91
2023-04-16T16:13:31.559Z,60.29
2023-04-16T16:15:59.376Z,60.49
2023-04-16T16:18:27.576Z,60.76
2023-04-16T16:20:57.921Z,60.82
2023-04-16T16:23:27.126Z,61.11
2023-04-16T16:25:55.385Z,60.80
2023-04-16T16:28:25.124Z,60.54
2023-04-16T16:30:55.818Z,60.78
2023-04-16T16:33:23.822Z,61.30
2023-04-16T16:35:51.608Z,61.47
2023-04-16T16:38:19.884Z,61.49
2023-04-16T16:40:47.742Z,61.87
2023-04-16T16:43:16.346Z,62.45
2023-04-16T16:45:44.316Z,62.44
2023-04-16T16:48:12.439Z,62.60
2023-04-16T16:50:40.273Z,63.07
2023-04-16T16:53:08.257Z,63.24
2023-04-16T16:55:36.108Z,63.64
2023-04-16T16:58:04.217Z,64.21
2023-04-16T17:00:31.900Z,64.99
2023-04-16T17:02:59.998Z,65.54
2023-04-16T17:05:27.877Z,66.04
2023-04-16T17:07:55.966Z,66.12
2023-04-16T17:10:23.628Z,66.37
2023-04-16T17:12:51.939Z,66.47
2023-04-16T17:15:21.788Z,67.27
2023-04-16T17:17:50.215Z,67.99
2023-04-16T17:20:18.155Z,68.36
2023-04-16T17:22:46.209Z,68.79
2023-04-16T17:25:14.167Z,68.94
2023-04-16T17:27:42.182Z,69.81
2023-04-16T17:30:10.211Z,70.47
2023-04-16T17:32:38.200Z,71.17
2023-04-16T17:35:06.932Z,71.93
2023-04-16T17:37:34.913Z,72.92
2023-04-16T17:40:07.428Z,73.64
2023-04-16T17:42:36.250Z,74.26
2023-04-16T17:45:04.403Z,74.50
2023-04-16T17:47:34.330Z,75.13
2023-04-16T17:50:02.509Z,76.08
2023-04-16T17:52:30.597Z,76.37
2023-04-16T17:55:01.473Z,76.96
2023-04-16T17:57:30.136Z,77.75
2023-04-16T17:59:58.211Z,78.19
2023-04-16T18:02:26.498Z,78.31
2023-04-16T18:04:54.649Z,79.02
2023-04-16T18:07:22.635Z,79.43
2023-04-16T18:09:50.328Z,79.78
2023-04-16T18:12:18.276Z,80.35
2023-04-16T18:14:46.216Z,80.94
2023-04-16T18:17:14.218Z,81.34
2023-04-16T18:19:43.757Z,81.62
2023-04-16T18:22:13.291Z,81.66
2023-04-16T18:24:41.217Z,82.25
2023-04-16T18:27:09.325Z,82.54
2023-04-16T18:29:38.926Z,82.92
2023-04-16T18:32:11.726Z,83.14
2023-04-16T18:34:40.193Z,83.13
2023-04-16T18:37:08.208Z,83.62
2023-04-16T18:39:36.889Z,83.69
2023-04-16T18:42:05.246Z,83.95
2023-04-16T18:44:32.963Z,84.29
2023-04-16T18:47:01.033Z,84.43
2023-04-16T18:49:28.920Z,84.49
2023-04-16T18:51:57.157Z,84.75
2023-04-16T18:54:24.831Z,85.31
2023-04-16T18:56:52.796Z,85.59
2023-04-16T18:59:20.397Z,86.24
2023-04-16T19:01:48.428Z,86.14
2023-04-16T19:04:16.178Z,86.43
2023-04-16T19:06:45.000Z,86.72
2023-04-16T19:09:13.114Z,86.63
2023-04-16T19:11:41.575Z,86.57
2023-04-16T19:14:09.517Z,86.77
2023-04-16T19:16:38.946Z,86.78
2023-04-16T19:19:06.623Z,86.86
2023-04-16T19:21:35.532Z,86.60
2023-04-16T19:24:03.334Z,86.82
2023-04-16T19:26:31.504Z,86.98
2023-04-16T19:28:59.569Z,86.68
2023-04-16T19:31:27.907Z,86.70
2023-04-16T19:33:55.639Z,86.79
2023-04-16T19:36:23.592Z,86.91
2023-04-16T19:38:51.430Z,86.94
2023-04-16T19:41:19.372Z,87.01
2023-04-16T19:43:47.146Z,86.94
2023-04-16T19:46:15.563Z,87.18
2023-04-16T19:48:43.428Z,87.20
2023-04-16T19:51:11.324Z,87.48
2023-04-16T19:53:39.043Z,87.74
2023-04-16T19:56:06.974Z,87.98
2023-04-16T19:58:34.741Z,88.10
2023-04-16T20:01:08.025Z,87.92
2023-04-16T20:03:35.844Z,88.40
2023-04-16T20:06:05.450Z,88.98
2023-04-16T20:08:33.127Z,89.18
2023-04-16T20:11:01.254Z,89.01
2023-04-16T20:13:28.919Z,89.07
2023-04-16T20:15:57.542Z,88.95
2023-04-16T20:18:28.272Z,88.99
2023-04-16T20:20:56.411Z,89.20
2023-04-16T20:23:24.032Z,89.26
2023-04-16T20:25:52.382Z,89.00
2023-04-16T20:28:21.546Z,89.39
2023-04-16T20:30:50.925Z,89.26
2023-04-16T20:33:18.736Z,90.11
2023-04-16T20:35:46.914Z,90.63
2023-04-16T20:38:14.950Z,90.82
2023-04-16T20:40:44.671Z,91.41
2023-04-16T20:43:14.395Z,91.53
2023-04-16T20:45:45.921Z,91.95
2023-04-16T20:48:13.686Z,92.09
2023-04-16T20:50:41.853Z,93.00
2023-04-16T20:53:09.560Z,92.98
2023-04-16T20:55:37.472Z,93.07
2023-04-16T20:58:05.112Z,93.17
2023-04-16T21:00:33.063Z,93.28
2023-04-16T21:03:01.048Z,93.89
2023-04-16T21:05:30.087Z,94.04
2023-04-16T21:07:57.810Z,94.46
2023-04-16T21:10:26.092Z,94.85
2023-04-16T21:12:53.736Z,95.83
2023-04-16T21:15:21.816Z,96.10
2023-04-16T21:17:49.907Z,96.46
2023-04-16T21:20:18.058Z,96.81
2023-04-16T21:22:45.766Z,97.44
2023-04-16T21:25:13.706Z,97.42
2023-04-16T21:27:41.670Z,97.40
2023-04-16T21:30:10.169Z,97.10
2023-04-16T21:32:38.127Z,97.28
2023-04-16T21:35:06.861Z,97.37
2023-04-16T21:37:34.576Z,98.08
2023-04-16T21:40:04.940Z,98.30
2023-04-16T21:42:33.401Z,98.41
2023-04-16T21:45:01.359Z,98.96
2023-04-16T21:47:29.019Z,98.84
2023-04-16T21:49:57.029Z,99.12
2023-04-16T21:52:24.866Z,99.29
2023-04-16T21:54:52.942Z,99.32
2023-04-16T21:57:20.787Z,99.32
2023-04-16T21:59:48.807Z,98.83
2023-04-16T22:02:16.668Z,99.04
2023-04-16T22:04:44.698Z,98.92
2023-04-16T22:07:12.437Z,98.96
2023-04-16T22:09:40.883Z,99.15
2023-04-16T22:12:11.454Z,99.42
2023-04-16T22:14:46.181Z,99.31
2023-04-16T22:17:23.817Z,99.34
2023-04-16T22:19:53.536Z,99.70
2023-04-16T22:22:21.881Z,99.52
2023-04-16T22:24:50.042Z,98.97
2023-04-16T22:27:17.847Z,99.30
2023-04-16T22:29:46.121Z,99.07
2023-04-16T22:32:13.824Z,98.71
2023-04-16T22:34:41.745Z,98.93
2023-04-16T22:37:09.473Z,98.97
2023-04-16T22:39:37.408Z,99.58
2023-04-16T22:42:05.170Z,99.77
2023-04-16T22:44:33.014Z,99.94
2023-04-16T22:47:00.671Z,99.96
2023-04-16T22:49:33.109Z,99.54
2023-04-16T22:52:00.968Z,99.64
2023-04-16T22:54:33.167Z,99.05
2023-04-16T22:57:01.126Z,99.57
2023-04-16T22:59:29.145Z,100.00
2023-04-16T23:01:56.935Z,100.00
2023-04-16T23:04:24.927Z,99.99
2023-04-16T23:06:52.632Z,100.00
2023-04-16T23:09:22.443Z,100.00
2023-04-16T23:11:50.254Z,100.00
2023-04-16T23:14:18.669Z,100.00
2023-04-16T23:16:46.467Z,100.00
2023-04-16T23:19:15.699Z,100.00
2023-04-16T23:21:43.341Z,100.00
2023-04-16T23:24:11.391Z,100.00
2023-04-16T23:26:39.008Z,100.00
2023-04-16T23:29:07.569Z,100.00
2023-04-16T23:31:35.277Z,100.00
2023-04-16T23:34:03.515Z,100.00
2023-04-16T23:36:31.548Z,100.00
2023-04-16T23:38:59.528Z,100.00
2023-04-16T23:41:27.237Z,100.00
2023-04-16T23:43:55.221Z,100.00
2023-04-16T23:46:22.853Z,100.00
2023-04-16T23:48:50.887Z,100.00
2023-04-16T23:51:18.573Z,100.00
2023-04-16T23:53:46.490Z,100.00
2023-04-16T23:56:15.471Z,100.00
2023-04-16T23:58:43.550Z,100.00
